Terminal Aerodrome Forecast
Issued by NWS Grand Forks, ND

Home | Current Version | Previous Version | Text Only | Print | Product List | Glossary Off
Versions: 1 2 3 4 5 6 7 8 9 10 11 12 13 14 15 16

048
FTUS43 KFGF 271024 AAB
TAFGFK
TAF AMD
KGFK 271024Z 2710/2806 15006KT P6SM VCSH SCT045 OVC060
     FM271200 18005KT P6SM OVC060
      TEMPO 2712/2714 -TSRA SCT040 OVC050CB
     FM271800 19010KT P6SM SCT080
     FM280200 17005KT P6SM SCT250=

USA.gov is the U.S. government's official web portal to all federal, state and local government web resources and services.